Flight Track Log - Related Links

Times and Time Zones

All times are in EDT time to prevent confusion due to time zone crossing. See the CCA4523 flight status page for this flight to view local times or setup timezone preferences in your user account.

Time Position Orientation Groundspeed Altitude Reporting Facility
EDT Latitude Longitude Course Direction KTS MPH feet Rate Location/Type
Sat 08:48:00 PM 32.8376 104.4614 91° East  Level Estimated
Sat 08:49:00 PM 32.8331 104.6171 92° East  Level Estimated
Sat 08:50:00 PM 32.8285 104.7727 92° East  Level Estimated
Sat 08:51:00 PM 32.8237 104.9283 92° East  Level Estimated
Sat 08:52:00 PM 32.8186 105.0839 92° East  Level Estimated
Sat 08:53:00 PM 32.8134 105.2395 92° East  Level Estimated
Sat 08:54:00 PM 32.8080 105.3951 92° East  Level Estimated
Sat 08:55:00 PM 32.8023 105.5506 92° East  Level Estimated
Sat 08:55:23 PM 32.8130 104.4370 93° East 455 524 27,100  Level FlightAware ADS-B
Sat 08:56:00 PM 32.7965 105.7061 93° East  Level Estimated
Sat 08:56:07 PM 32.7840 104.5270 111° Southeast 457 526 27,100  Level FlightAware ADS-B
Sat 08:56:43 PM 32.7610 104.5980 111° Southeast 457 526 27,100  Level FlightAware ADS-B
Sat 08:57:20 PM 32.7370 104.6720 111° Southeast 457 526 27,100  Level FlightAware ADS-B
Sat 08:57:53 PM 32.7160 104.7380 111° Southeast 457 526 27,100  Level FlightAware ADS-B
Sat 08:58:29 PM 32.6920 104.8100 112° Southeast 457 526 27,100  Level FlightAware ADS-B
Sat 08:59:06 PM 32.6690 104.8840 110° East 457 526 27,100 88 Level FlightAware ADS-B
Sat 09:01:00 PM 32.6620 105.1792 92° East  Level Estimated
Sat 09:02:00 PM 32.6580 105.3346 92° East  Level Estimated
Sat 09:03:00 PM 32.6539 105.4899 92° East  Level Estimated
Sat 09:04:00 PM 32.6496 105.6452 92° East  Level Estimated
Sat 09:05:00 PM 32.6450 105.8006 92° East  Level Estimated
Sat 09:06:00 PM 32.6403 105.9559 92° East  Level Estimated
Sat 09:07:00 PM 32.6354 106.1111 92° East  Level Estimated
Sat 09:08:00 PM 32.6303 106.2664 92° East  Level Estimated
Sat 09:09:00 PM 32.6250 106.4217 92° East  Level Estimated
Sat 09:10:00 PM 32.6195 106.5769 92° East  Level Estimated
Sat 09:11:00 PM 32.6138 106.7321 92° East  Level Estimated
Sat 09:12:00 PM 32.6079 106.8873 93° East  Level Estimated
Sat 09:13:00 PM 32.6019 107.0424 93° East  Level Estimated
Sat 09:14:00 PM 32.5956 107.1976 93° East  Level Estimated
Sat 09:15:00 PM 32.5892 107.3527 93° East  Level Estimated
Sat 09:16:00 PM 32.5825 107.5078 93° East  Level Estimated
Sat 09:17:00 PM 32.5757 107.6629 93° East  Level Estimated
Sat 09:18:00 PM 32.5687 107.8179 93° East  Level Estimated
Sat 09:19:00 PM 32.5615 107.9730 93° East  Level Estimated
Sat 09:20:00 PM 32.5541 108.1280 93° East  Level Estimated
Sat 09:21:00 PM 32.5465 108.2830 93° East  Level Estimated
Sat 09:22:00 PM 32.5387 108.4379 93° East  Level Estimated
Sat 09:23:00 PM 32.5307 108.5928 93° East  Level Estimated
Sat 09:24:00 PM 32.5226 108.7477 94° East  Level Estimated
Sat 09:25:00 PM 32.5142 108.9026 94° East  Level Estimated
Sat 09:26:00 PM 32.5057 109.0574 94° East  Level Estimated
Sat 09:27:00 PM 32.4970 109.2122 94° East  Level Estimated
Sat 09:28:00 PM 32.4881 109.3670 94° East  Level Estimated
Sat 09:29:00 PM 32.4790 109.5218 94° East  Level Estimated
Sat 09:30:00 PM 32.4697 109.6765 94° East  Level Estimated
Sat 09:31:00 PM 32.4602 109.8312 94° East  Level Estimated
Sat 09:32:00 PM 32.4505 109.9858 94° East  Level Estimated
Sat 09:33:00 PM 32.4407 110.1404 94° East  Level Estimated
Sat 09:34:00 PM 32.4306 110.2950 94° East  Level Estimated
Sat 09:35:00 PM 32.4204 110.4496 94° East  Level Estimated
Sat 09:36:00 PM 32.4099 110.6041 95° East  Level Estimated
Sat 09:37:00 PM 32.3993 110.7586 95° East  Level Estimated
Sat 09:38:00 PM 32.3885 110.9130 95° East  Level Estimated
Sat 09:39:00 PM 32.3775 111.0674 95° East  Level Estimated
Sat 09:40:00 PM 32.3663 111.2218 95° East  Level Estimated
Sat 09:41:00 PM 32.3550 111.3761 95° East  Level Estimated
Sat 09:42:00 PM 32.3434 111.5304 95° East  Level Estimated
Sat 09:43:00 PM 32.3317 111.6846 95° East  Level Estimated
Sat 09:44:00 PM 32.3198 111.8389 95° East  Level Estimated
Sat 09:45:00 PM 32.3076 111.9930 95° East  Level Estimated
Sat 09:46:00 PM 32.2953 112.1472 95° East  Level Estimated
Sat 09:47:00 PM 32.2828 112.3012 95° East  Level Estimated
Sat 09:48:00 PM 32.2701 112.4553 96° East  Level Estimated
Sat 09:49:00 PM 32.2573 112.6093 96° East  Level Estimated
Sat 09:50:00 PM 32.2442 112.7632 96° East  Level Estimated
Sat 09:51:00 PM 32.2310 112.9171 96° East  Level Estimated
Sat 09:52:00 PM 32.2176 113.0710 96° East  Level Estimated
Sat 09:53:00 PM 32.2039 113.2248 96° East  Level Estimated
Sat 09:54:00 PM 32.1902 113.3786 96° East  Level Estimated
Sat 09:55:00 PM 32.1762 113.5323 96° East  Level Estimated
Sat 09:56:00 PM 32.1620 113.6860 96° East  Level Estimated
Sat 09:57:00 PM 32.1476 113.8396 96° East  Level Estimated
Sat 09:58:00 PM 32.1331 113.9932 96° East  Level Estimated
Sat 09:59:00 PM 32.1184 114.1467 96° East  Level Estimated
Sat 10:00:00 PM 32.1035 114.3002 97° East  Level Estimated
Sat 10:01:00 PM 32.0883 114.4536 97° East  Level Estimated
Sat 10:02:00 PM 32.0731 114.6070 97° East  Level Estimated
Sat 10:03:00 PM 32.0576 114.7604 97° East  Level Estimated
Sat 10:04:00 PM 32.0420 114.9136 97° East  Level Estimated
Sat 10:05:00 PM 32.0261 115.0668 97° East  Level Estimated
Sat 10:06:00 PM 32.0101 115.2200 97° East  Level Estimated
Sat 10:07:00 PM 31.9939 115.3731 97° East  Level Estimated
Sat 10:08:00 PM 31.9775 115.5262 97° East  Level Estimated
Sat 10:09:00 PM 31.9609 115.6792 97° East  Level Estimated
Sat 10:10:00 PM 31.9442 115.8322 97° East  Level Estimated
Sat 10:11:00 PM 31.9272 115.9851 97° East  Level Estimated
Sat 10:12:00 PM 31.9101 116.1379 97° East  Level Estimated
Sat 10:13:00 PM 31.8928 116.2907 98° East  Level Estimated
Sat 10:14:00 PM 31.8753 116.4434 98° East  Level Estimated
Sat 10:15:00 PM 31.8577 116.5961 98° East  Level Estimated
Sat 10:16:00 PM 31.8398 116.7487 98° East  Level Estimated
Sat 10:17:00 PM 31.8218 116.9012 98° East  Level Estimated
Sat 10:18:00 PM 31.8036 117.0537 98° East  Level Estimated
Sat 10:19:00 PM 31.7852 117.2061 98° East  Level Estimated
Sat 10:20:00 PM 31.7666 117.3585 98° East  Level Estimated
Sat 10:21:00 PM 31.7478 117.5108 98° East  Level Estimated
Sat 10:22:00 PM 31.7289 117.6631 98° East  Level Estimated
Sat 10:23:00 PM 31.7097 117.8152 98° East  Level Estimated
Sat 10:24:00 PM 31.6905 117.9674 98° East  Level Estimated
Sat 10:25:00 PM 31.6710 118.1194 99° East  Level Estimated
Sat 10:26:00 PM 31.6513 118.2714 99° East  Level Estimated
Sat 10:27:00 PM 31.6315 118.4233 99° East  Level Estimated
Sat 10:28:00 PM 31.6115 118.5752 99° East  Level Estimated
Sat 10:29:00 PM 31.5912 118.7270 99° East  Level Estimated
Sat 10:29:44 PM 31.6250 118.7300 99° East 503 579 35,100  Level FlightAware ADS-B
Sat 10:30:00 PM 31.5709 118.8787 99° East  Level Estimated
Sat 10:30:19 PM 31.6170 118.8310 95° East 503 579 35,100  Level FlightAware ADS-B
Sat 10:30:54 PM 31.6100 118.9260 95° East 502 578 35,100  Level FlightAware ADS-B
Sat 10:31:33 PM 31.6050 119.0160 94° East 502 578 35,100  Level FlightAware ADS-B
Sat 10:32:09 PM 31.6000 119.1000 94° East 502 578 35,100  Level FlightAware ADS-B
Sat 10:33:01 PM 31.5900 119.2610 94° East 504 580 35,100  Level FlightAware ADS-B
Sat 10:33:37 PM 31.5870 119.3450 92° East 504 580 35,100  Level FlightAware ADS-B
Sat 10:34:11 PM 31.5850 119.4240 92° East 504 580 35,100  Level FlightAware ADS-B
Sat 10:34:48 PM 31.5820 119.5100 92° East 504 580 35,100  Level FlightAware ADS-B
Sat 10:35:23 PM 31.5800 119.5920 92° East 504 580 35,100  Level FlightAware ADS-B
Sat 10:36:03 PM 31.5770 119.6850 92° East 504 580 35,100  Level FlightAware ADS-B
Sat 10:36:39 PM 31.5740 119.7680 92° East 504 580 35,100  Level FlightAware ADS-B
Sat 10:37:16 PM 31.5720 119.8540 92° East 504 580 35,100  Level FlightAware ADS-B
Sat 10:37:52 PM 31.5690 119.9380 92° East 504 580 35,100  Level FlightAware ADS-B
Sat 10:38:29 PM 31.5670 120.0240 92° East 504 580 35,100  Level FlightAware ADS-B
Sat 10:39:05 PM 31.5640 120.1080 92° East 504 580 35,100  Level FlightAware ADS-B
Sat 10:39:40 PM 31.5620 120.1890 92° East 504 580 35,100 -14,897 Level FlightAware ADS-B
Sat 10:40:03 PM 31.5750 120.3700 85° East 436 502 20,700 -14,897 Descending FlightAware ADS-B
Sat 10:40:38 PM 31.5530 120.4510 108° East 433 498 20,700  Level FlightAware ADS-B
Sat 10:41:08 PM 31.5340 120.5150 109° East 435 501 20,700 -369 Level FlightAware ADS-B
Sat 10:41:43 PM 31.5110 120.5910 110° East 429 494 20,300 -1,120 Descending FlightAware ADS-B
Sat 10:42:23 PM 31.4840 120.6810 109° East 418 481 19,300 -1,440 Descending FlightAware ADS-B
Sat 10:42:58 PM 31.4630 120.7470 110° East 411 473 18,500 -1,569 Descending FlightAware ADS-B
Sat 10:43:28 PM 31.4430 120.8150 109° East 410 472 17,600 -1,662 Descending FlightAware ADS-B
Sat 10:44:03 PM 31.4200 120.8880 110° East 403 464 16,700 -1,457 Descending FlightAware ADS-B
Sat 10:44:38 PM 31.3980 120.9590 110° East 397 457 15,900 -1,378 Descending FlightAware ADS-B
Sat 10:45:17 PM 31.3770 121.0300 109° East 390 449 15,000 -1,543 Descending FlightAware ADS-B
Sat 10:45:48 PM 31.3540 121.0990 111° Southeast 382 440 14,100 -1,647 Descending FlightAware ADS-B
Sat 10:46:08 PM 31.3320 121.1310 129° Southeast 375 432 13,600 -1,200 Descending FlightAware ADS-B
Sat 10:46:38 PM 31.2930 121.1710 139° Southeast 369 425 13,100 -1,015 Descending FlightAware ADS-B
Sat 10:47:13 PM 31.2480 121.2160 139° Southeast 367 422 12,500 -1,040 Descending FlightAware ADS-B
Sat 10:47:53 PM 31.1970 121.2670 139° Southeast 368 423 11,800 -1,014 Descending FlightAware ADS-B
Sat 10:48:24 PM 31.1600 121.3050 139° Southeast 357 411 11,300 -984 Descending FlightAware ADS-B
Sat 10:48:54 PM 31.1270 121.3520 129° Southeast 333 383 10,800 -933 Descending FlightAware ADS-B
Sat 10:49:09 PM 31.1240 121.3770 98° East 323 372 10,600 -720 Descending FlightAware ADS-B
Sat 10:49:44 PM 31.1260 121.4350 88° East 305 351 10,200 -764 Descending FlightAware ADS-B
Sat 10:50:04 PM 31.1270 121.4670 88° East 296 341 9,900 -900 Descending FlightAware ADS-B
Sat 10:50:24 PM 31.1270 121.4990 90° East 284 327 9,600 -667 Descending FlightAware ADS-B
Sat 10:50:40 PM 31.1280 121.5190 87° East 276 318 9,500 -750 Descending FlightAware ADS-B
Sat 10:51:04 PM 31.1280 121.5550 90° East 263 303 9,100 -857 Descending FlightAware ADS-B
Sat 10:51:29 PM 31.1290 121.5900 88° East 253 291 8,800 -720 Descending FlightAware ADS-B
Sat 10:51:54 PM 31.1290 121.6230 90° East 243 280 8,500 -414 Descending FlightAware ADS-B
Sat 10:52:27 PM 31.1300 121.6610 88° East 242 278 8,400 -682 Descending FlightAware ADS-B
Sat 10:52:38 PM 31.1180 121.6740 137° Southeast 230 265 8,000 -1,765 Descending FlightAware ADS-B
Sat 10:52:44 PM 31.1130 121.6780 146° Southeast 231 266 7,900 -286 Descending FlightAware ADS-B
Sat 10:52:59 PM 31.0980 121.6840 161° South 241 277 7,900 -171 Level FlightAware ADS-B
Sat 10:53:19 PM 31.0750 121.6920 163° South 230 265 7,800 -686 Descending FlightAware ADS-B
Sat 10:53:34 PM 31.0590 121.6970 165° South 240 276 7,500 -1,400 Descending FlightAware ADS-B
Sat 10:53:49 PM 31.0430 121.7030 162° South 235 270 7,100 -1,588 Descending FlightAware ADS-B
Sat 10:54:08 PM 31.0210 121.7100 165° South 238 274 6,600 -1,297 Descending FlightAware ADS-B
Sat 10:54:26 PM 31.0040 121.7150 166° South 235 270 6,300 -1,171 Descending FlightAware ADS-B
Sat 10:54:49 PM 30.9770 121.7240 164° South 232 267 5,800 -1,250 Descending FlightAware ADS-B
Sat 10:55:14 PM 30.9510 121.7320 165° South 239 275 5,300 -1,043 Descending FlightAware ADS-B
Sat 10:55:35 PM 30.9290 121.7390 165° South 236 272 5,000 -686 Descending FlightAware ADS-B
Sat 10:55:49 PM 30.9140 121.7440 164° South 238 274 4,900 -182 Descending FlightAware ADS-B
Sat 10:56:08 PM 30.8920 121.7510 165° South 236 272 4,900  Level FlightAware ADS-B
Sat 10:56:24 PM 30.8780 121.7550 166° South 222 255 4,900 -231 Level FlightAware ADS-B
Sat 10:56:34 PM 30.8680 121.7610 153° Southeast 211 243 4,800 -600 Descending FlightAware ADS-B
Sat 10:56:44 PM 30.8630 121.7670 134° Southeast 196 226 4,700 -900 Descending FlightAware ADS-B
Sat 10:56:54 PM 30.8590 121.7790 111° Southeast 193 222 4,500 -1,200 Descending FlightAware ADS-B
Sat 10:56:59 PM 30.8590 121.7830 90° East 190 219 4,400 -200 Descending FlightAware ADS-B
Sat 10:57:24 PM 30.8590 121.8050 90° East 190 219 4,400 -682 Level FlightAware ADS-B
Sat 10:57:43 PM 30.8590 121.8270 90° East 188 216 3,900 -732 Descending FlightAware ADS-B
Sat 10:58:05 PM 30.8640 121.8470 74° East 179 206 3,900  Level FlightAware ADS-B
Sat 10:58:09 PM 30.8660 121.8490 41° Northeast 178 205 3,900  Level FlightAware ADS-B
Sat 10:58:20 PM 30.8740 121.8540 28° Northeast 175 201 3,900  Level FlightAware ADS-B
Sat 10:58:33 PM 30.8850 121.8580 17° North 168 193 3,900 -529 Level FlightAware ADS-B
Sat 10:58:54 PM 30.9020 121.8620 11° North 169 194 3,600 -800 Descending FlightAware ADS-B
Sat 10:59:18 PM 30.9220 121.8670 12° North 166 191 3,300 -300 Descending FlightAware ADS-B
Sat 10:59:54 PM 30.9450 121.8680 North 175 201 3,300 -429 Level FlightAware ADS-B
Sat 11:00:00 PM 30.9540 121.8590 319° Northwest 171 197 3,000 -947 Descending FlightAware ADS-B
Sat 11:00:13 PM 30.9650 121.8550 343° North 173 199 3,000 -182 Level FlightAware ADS-B
Sat 11:00:33 PM 30.9810 121.8490 342° North 167 192 2,900 -514 Descending FlightAware ADS-B
Sat 11:00:48 PM 30.9920 121.8450 343° North 169 194 2,700 -857 Descending FlightAware ADS-B
Sat 11:01:08 PM 31.0070 121.8390 341° North 157 181 2,400 -1,000 Descending FlightAware ADS-B
Sat 11:01:18 PM 31.0140 121.8360 340° North 155 178 2,200 -857 Descending FlightAware ADS-B
Sat 11:01:43 PM 31.0310 121.8300 343° North 135 155 1,900 -706 Descending FlightAware ADS-B
Sat 11:02:09 PM 31.0460 121.8250 344° North 134 154 1,600 -533 Descending FlightAware ADS-B
Sat 11:02:28 PM 31.0550 121.8210 339° North 120 138 1,500 -682 Descending FlightAware ADS-B
Sat 11:02:53 PM 31.0710 121.8150 342° North 122 140 1,100 -421 Descending FlightAware ADS-B
Sat 11:03:25 PM 31.0840 121.8100 342° North 124 143 1,100 -682 Level FlightAware ADS-B
Sat 11:03:37 PM 31.0960 121.8050 340° North 122 140 600 -1,116 Descending FlightAware ADS-B
Sat 11:04:08 PM 31.1130 121.7990 343° North 118 136 300 -277 Descending FlightAware ADS-B
Sat 11:04:42 PM 31.1280 121.7930 341° North 118 136 300  Level FlightAware ADS-B

Login

Don't have an account? Register now (free) for customized features, flight alerts, and more!